sensor_id;sensor_type;location;lat;lon;timestamp;pressure;altitude;pressure_sealevel;temperature;humidity
61697;BME280;47610;52.252;20.922;2023-03-07T00:03:03;98903.83;;;-0.48;100.00
61697;BME280;47610;52.252;20.922;2023-03-07T00:08:08;98909.07;;;-0.48;100.00
61697;BME280;47610;52.252;20.922;2023-03-07T00:13:12;98904.02;;;-0.52;100.00
61697;BME280;47610;52.252;20.922;2023-03-07T00:18:15;98906.97;;;-0.59;100.00
61697;BME280;47610;52.252;20.922;2023-03-07T00:23:18;98909.84;;;-0.63;100.00
61697;BME280;47610;52.252;20.922;2023-03-07T00:28:22;98907.73;;;-0.63;100.00
61697;BME280;47610;52.252;20.922;2023-03-07T00:33:26;98910.71;;;-0.57;100.00
61697;BME280;47610;52.252;20.922;2023-03-07T00:38:32;98908.01;;;-0.53;100.00
61697;BME280;47610;52.252;20.922;2023-03-07T00:52:02;98901.71;;;-0.48;100.00
61697;BME280;47610;52.252;20.922;2023-03-07T00:57:05;98904.80;;;-0.55;100.00
61697;BME280;47610;52.252;20.922;2023-03-07T01:02:09;98903.98;;;-0.59;100.00
61697;BME280;47610;52.252;20.922;2023-03-07T01:07:12;98899.95;;;-0.66;100.00
61697;BME280;47610;52.252;20.922;2023-03-07T01:12:15;98900.81;;;-0.74;100.00
61697;BME280;47610;52.252;20.922;2023-03-07T01:17:20;98901.38;;;-0.88;100.00
61697;BME280;47610;52.252;20.922;2023-03-07T01:22:24;98888.84;;;-1.11;100.00
61697;BME280;47610;52.252;20.922;2023-03-07T01:27:27;98892.04;;;-1.34;100.00
61697;BME280;47610;52.252;20.922;2023-03-07T01:32:31;98887.25;;;-1.58;100.00
61697;BME280;47610;52.252;20.922;2023-03-07T01:37:34;98883.34;;;-1.80;100.00
61697;BME280;47610;52.252;20.922;2023-03-07T01:42:37;98886.89;;;-1.97;100.00
61697;BME280;47610;52.252;20.922;2023-03-07T01:47:42;98884.88;;;-2.12;100.00
61697;BME280;47610;52.252;20.922;2023-03-07T01:52:45;98879.23;;;-2.28;100.00
61697;BME280;47610;52.252;20.922;2023-03-07T01:57:51;98878.52;;;-2.41;100.00
61697;BME280;47610;52.252;20.922;2023-03-07T02:03:03;98875.60;;;-2.53;100.00
61697;BME280;47610;52.252;20.922;2023-03-07T02:08:13;98876.16;;;-2.64;100.00
61697;BME280;47610;52.252;20.922;2023-03-07T02:13:17;98873.74;;;-2.73;100.00
61697;BME280;47610;52.252;20.922;2023-03-07T02:18:23;98878.32;;;-2.81;100.00
61697;BME280;47610;52.252;20.922;2023-03-07T02:23:34;98883.41;;;-2.89;100.00
61697;BME280;47610;52.252;20.922;2023-03-07T02:28:42;98881.91;;;-2.95;100.00
61697;BME280;47610;52.252;20.922;2023-03-07T02:33:46;98882.11;;;-2.98;100.00
61697;BME280;47610;52.252;20.922;2023-03-07T02:38:53;98884.43;;;-3.02;100.00
61697;BME280;47610;52.252;20.922;2023-03-07T02:44:00;98882.95;;;-3.07;100.00
61697;BME280;47610;52.252;20.922;2023-03-07T02:49:04;98882.55;;;-3.11;100.00
61697;BME280;47610;52.252;20.922;2023-03-07T02:54:08;98876.89;;;-3.17;100.00
61697;BME280;47610;52.252;20.922;2023-03-07T02:59:11;98879.05;;;-3.22;100.00
61697;BME280;47610;52.252;20.922;2023-03-07T03:10:11;98877.23;;;-3.14;100.00
61697;BME280;47610;52.252;20.922;2023-03-07T03:15:17;98871.71;;;-2.99;100.00
61697;BME280;47610;52.252;20.922;2023-03-07T03:20:21;98871.65;;;-2.82;100.00
61697;BME280;47610;52.252;20.922;2023-03-07T03:25:24;98869.92;;;-2.73;100.00
61697;BME280;47610;52.252;20.922;2023-03-07T03:30:28;98869.13;;;-2.69;100.00
61697;BME280;47610;52.252;20.922;2023-03-07T03:35:31;98868.27;;;-2.64;100.00
61697;BME280;47610;52.252;20.922;2023-03-07T03:40:38;98868.02;;;-2.63;100.00
61697;BME280;47610;52.252;20.922;2023-03-07T03:45:42;98866.74;;;-2.61;100.00
61697;BME280;47610;52.252;20.922;2023-03-07T03:50:46;98867.89;;;-2.57;100.00
61697;BME280;47610;52.252;20.922;2023-03-07T03:55:50;98869.80;;;-2.53;100.00
61697;BME280;47610;52.252;20.922;2023-03-07T04:00:53;98866.38;;;-2.51;100.00
61697;BME280;47610;52.252;20.922;2023-03-07T04:06:01;98865.61;;;-2.53;100.00
61697;BME280;47610;52.252;20.922;2023-03-07T04:11:06;98864.02;;;-2.58;100.00
61697;BME280;47610;52.252;20.922;2023-03-07T04:16:10;98865.41;;;-2.63;100.00
61697;BME280;47610;52.252;20.922;2023-03-07T04:21:14;98861.48;;;-2.67;100.00
61697;BME280;47610;52.252;20.922;2023-03-07T04:26:19;98855.46;;;-2.66;100.00
61697;BME280;47610;52.252;20.922;2023-03-07T04:31:25;98856.83;;;-2.66;100.00
61697;BME280;47610;52.252;20.922;2023-03-07T04:36:30;98858.52;;;-2.70;100.00
61697;BME280;47610;52.252;20.922;2023-03-07T04:41:33;98854.57;;;-2.71;100.00
61697;BME280;47610;52.252;20.922;2023-03-07T04:46:37;98845.64;;;-2.78;100.00
61697;BME280;47610;52.252;20.922;2023-03-07T04:51:42;98855.37;;;-2.85;100.00
61697;BME280;47610;52.252;20.922;2023-03-07T04:56:46;98849.36;;;-2.88;100.00
61697;BME280;47610;52.252;20.922;2023-03-07T05:01:51;98845.40;;;-2.91;100.00
61697;BME280;47610;52.252;20.922;2023-03-07T05:06:54;98844.99;;;-2.94;100.00
61697;BME280;47610;52.252;20.922;2023-03-07T05:11:58;98844.73;;;-2.96;100.00
61697;BME280;47610;52.252;20.922;2023-03-07T05:17:04;98844.34;;;-2.98;100.00
61697;BME280;47610;52.252;20.922;2023-03-07T05:30:15;98850.17;;;-2.94;100.00
61697;BME280;47610;52.252;20.922;2023-03-07T05:35:19;98845.64;;;-2.92;100.00
61697;BME280;47610;52.252;20.922;2023-03-07T05:40:23;98855.03;;;-2.88;100.00
61697;BME280;47610;52.252;20.922;2023-03-07T05:45:27;98855.36;;;-2.85;100.00
61697;BME280;47610;52.252;20.922;2023-03-07T05:50:30;98860.39;;;-2.79;100.00
61697;BME280;47610;52.252;20.922;2023-03-07T05:55:34;98863.02;;;-2.70;100.00
61697;BME280;47610;52.252;20.922;2023-03-07T06:00:37;98864.27;;;-2.61;100.00
61697;BME280;47610;52.252;20.922;2023-03-07T06:05:41;98867.96;;;-2.52;100.00
61697;BME280;47610;52.252;20.922;2023-03-07T06:10:44;98864.88;;;-2.43;100.00
61697;BME280;47610;52.252;20.922;2023-03-07T06:15:52;98863.45;;;-2.31;100.00
61697;BME280;47610;52.252;20.922;2023-03-07T06:21:00;98858.79;;;-2.18;100.00
61697;BME280;47610;52.252;20.922;2023-03-07T06:26:06;98866.13;;;-2.02;100.00
61697;BME280;47610;52.252;20.922;2023-03-07T06:31:11;98870.08;;;-1.97;100.00
61697;BME280;47610;52.252;20.922;2023-03-07T06:36:17;98868.27;;;-2.02;100.00
61697;BME280;47610;52.252;20.922;2023-03-07T06:41:21;98866.13;;;-2.08;100.00
61697;BME280;47610;52.252;20.922;2023-03-07T06:46:26;98861.77;;;-1.96;100.00
61697;BME280;47610;52.252;20.922;2023-03-07T06:51:30;98854.96;;;-1.86;100.00
61697;BME280;47610;52.252;20.922;2023-03-07T06:56:33;98852.45;;;-1.74;100.00
61697;BME280;47610;52.252;20.922;2023-03-07T07:01:37;98848.23;;;-1.61;100.00
61697;BME280;47610;52.252;20.922;2023-03-07T07:06:43;98845.15;;;-1.23;100.00
61697;BME280;47610;52.252;20.922;2023-03-07T07:11:46;98842.30;;;-0.94;100.00
61697;BME280;47610;52.252;20.922;2023-03-07T07:16:50;98831.64;;;-0.87;100.00
61697;BME280;47610;52.252;20.922;2023-03-07T07:21:54;98830.02;;;-0.97;100.00
61697;BME280;47610;52.252;20.922;2023-03-07T07:26:58;98832.21;;;-0.70;100.00
61697;BME280;47610;52.252;20.922;2023-03-07T07:32:01;98825.98;;;-0.14;100.00
61697;BME280;47610;52.252;20.922;2023-03-07T07:37:08;98821.09;;;0.37;100.00
61697;BME280;47610;52.252;20.922;2023-03-07T07:50:37;98810.60;;;3.21;100.00
61697;BME280;47610;52.252;20.922;2023-03-07T07:55:39;98810.69;;;7.58;100.00
61697;BME280;47610;52.252;20.922;2023-03-07T08:00:42;98814.00;;;9.35;100.00
61697;BME280;47610;52.252;20.922;2023-03-07T08:05:46;98808.83;;;9.91;100.00
61697;BME280;47610;52.252;20.922;2023-03-07T08:10:48;98796.34;;;10.83;100.00
61697;BME280;47610;52.252;20.922;2023-03-07T08:15:50;98800.55;;;13.40;94.00
61697;BME280;47610;52.252;20.922;2023-03-07T08:20:52;98795.92;;;15.12;75.86
61697;BME280;47610;52.252;20.922;2023-03-07T08:25:54;98791.14;;;15.66;63.21
61697;BME280;47610;52.252;20.922;2023-03-07T08:30:56;98784.95;;;17.42;57.89
61697;BME280;47610;52.252;20.922;2023-03-07T08:35:59;98780.66;;;16.64;51.62
61697;BME280;47610;52.252;20.922;2023-03-07T08:41:02;98769.34;;;14.71;48.71
61697;BME280;47610;52.252;20.922;2023-03-07T08:46:05;98762.90;;;15.97;46.62
61697;BME280;47610;52.252;20.922;2023-03-07T08:51:09;98761.00;;;17.17;39.38
61697;BME280;47610;52.252;20.922;2023-03-07T08:56:15;98761.10;;;18.14;35.95
61697;BME280;47610;52.252;20.922;2023-03-07T09:01:19;98757.83;;;19.41;34.22
61697;BME280;47610;52.252;20.922;2023-03-07T09:06:23;98756.41;;;20.37;30.36
61697;BME280;47610;52.252;20.922;2023-03-07T09:11:25;98751.55;;;20.89;29.69
61697;BME280;47610;52.252;20.922;2023-03-07T09:16:27;98750.32;;;22.16;30.48
61697;BME280;47610;52.252;20.922;2023-03-07T09:21:29;98743.50;;;22.94;26.11
61697;BME280;47610;52.252;20.922;2023-03-07T09:26:31;98741.11;;;22.24;25.44
61697;BME280;47610;52.252;20.922;2023-03-07T09:31:32;98738.99;;;22.01;25.61
61697;BME280;47610;52.252;20.922;2023-03-07T09:42:14;98728.17;;;21.96;26.08
61697;BME280;47610;52.252;20.922;2023-03-07T09:53:02;98713.66;;;16.82;34.27
61697;BME280;47610;52.252;20.922;2023-03-07T09:58:08;98697.68;;;17.13;35.24
61697;BME280;47610;52.252;20.922;2023-03-07T10:03:28;98687.78;;;18.46;35.09
61697;BME280;47610;52.252;20.922;2023-03-07T10:08:34;98685.23;;;17.83;34.54
61697;BME280;47610;52.252;20.922;2023-03-07T10:13:47;98669.65;;;15.40;38.86
61697;BME280;47610;52.252;20.922;2023-03-07T10:19:04;98666.02;;;12.37;49.78
61697;BME280;47610;52.252;20.922;2023-03-07T10:24:29;98656.81;;;9.72;65.70
61697;BME280;47610;52.252;20.922;2023-03-07T10:29:39;98655.61;;;7.88;81.13
61697;BME280;47610;52.252;20.922;2023-03-07T10:34:48;98652.91;;;6.79;93.14
61697;BME280;47610;52.252;20.922;2023-03-07T10:39:56;98646.97;;;5.85;100.00
61697;BME280;47610;52.252;20.922;2023-03-07T10:45:00;98629.50;;;5.20;100.00
61697;BME280;47610;52.252;20.922;2023-03-07T10:50:26;98610.14;;;4.84;100.00
61697;BME280;47610;52.252;20.922;2023-03-07T10:55:41;98591.81;;;4.20;100.00
61697;BME280;47610;52.252;20.922;2023-03-07T11:00:59;98586.63;;;3.95;100.00
61697;BME280;47610;52.252;20.922;2023-03-07T11:06:04;98573.52;;;4.48;100.00
61697;BME280;47610;52.252;20.922;2023-03-07T11:11:23;98569.91;;;5.24;100.00
61697;BME280;47610;52.252;20.922;2023-03-07T11:16:27;98562.33;;;5.83;100.00
61697;BME280;47610;52.252;20.922;2023-03-07T11:21:33;98555.45;;;5.67;100.00
61697;BME280;47610;52.252;20.922;2023-03-07T11:26:39;98538.72;;;5.57;100.00
61697;BME280;47610;52.252;20.922;2023-03-07T11:31:49;98528.34;;;5.54;100.00
61697;BME280;47610;52.252;20.922;2023-03-07T11:37:14;98520.61;;;5.51;100.00
61697;BME280;47610;52.252;20.922;2023-03-07T11:42:22;98513.23;;;5.62;100.00
61697;BME280;47610;52.252;20.922;2023-03-07T11:47:37;98507.40;;;5.63;100.00
61697;BME280;47610;52.252;20.922;2023-03-07T12:01:39;98473.36;;;5.95;100.00
61697;BME280;47610;52.252;20.922;2023-03-07T12:06:55;98476.27;;;6.29;100.00
61697;BME280;47610;52.252;20.922;2023-03-07T12:17:50;98466.76;;;6.38;100.00
61697;BME280;47610;52.252;20.922;2023-03-07T12:23:14;98460.48;;;6.32;100.00
61697;BME280;47610;52.252;20.922;2023-03-07T12:28:26;98449.36;;;6.19;100.00
61697;BME280;47610;52.252;20.922;2023-03-07T12:33:48;98446.99;;;6.19;100.00
61697;BME280;47610;52.252;20.922;2023-03-07T12:38:57;98439.96;;;6.23;100.00
61697;BME280;47610;52.252;20.922;2023-03-07T12:44:09;98431.73;;;6.21;100.00
61697;BME280;47610;52.252;20.922;2023-03-07T12:49:18;98424.39;;;6.26;100.00
61697;BME280;47610;52.252;20.922;2023-03-07T12:54:28;98414.88;;;6.45;100.00
61697;BME280;47610;52.252;20.922;2023-03-07T12:59:34;98407.59;;;6.43;100.00
61697;BME280;47610;52.252;20.922;2023-03-07T13:04:40;98405.91;;;6.35;100.00
61697;BME280;47610;52.252;20.922;2023-03-07T13:09:46;98403.60;;;6.33;100.00
61697;BME280;47610;52.252;20.922;2023-03-07T13:14:52;98399.85;;;6.26;100.00
61697;BME280;47610;52.252;20.922;2023-03-07T13:19:58;98395.11;;;6.01;100.00
61697;BME280;47610;52.252;20.922;2023-03-07T13:31:11;98388.75;;;5.68;100.00
61697;BME280;47610;52.252;20.922;2023-03-07T13:36:33;98384.95;;;5.62;100.00
61697;BME280;47610;52.252;20.922;2023-03-07T13:41:48;98372.36;;;5.47;100.00
61697;BME280;47610;52.252;20.922;2023-03-07T13:46:54;98360.98;;;5.29;100.00
61697;BME280;47610;52.252;20.922;2023-03-07T13:52:26;98357.03;;;5.13;100.00
61697;BME280;47610;52.252;20.922;2023-03-07T13:57:37;98344.63;;;4.99;100.00
61697;BME280;47610;52.252;20.922;2023-03-07T14:02:42;98340.91;;;4.95;100.00
61697;BME280;47610;52.252;20.922;2023-03-07T14:07:46;98333.35;;;4.88;100.00
61697;BME280;47610;52.252;20.922;2023-03-07T14:22:03;98314.39;;;4.91;100.00
61697;BME280;47610;52.252;20.922;2023-03-07T14:27:13;98310.07;;;4.83;100.00
61697;BME280;47610;52.252;20.922;2023-03-07T14:32:26;98308.31;;;4.78;100.00
61697;BME280;47610;52.252;20.922;2023-03-07T14:37:33;98301.02;;;4.73;100.00
61697;BME280;47610;52.252;20.922;2023-03-07T14:42:42;98299.36;;;4.69;100.00
61697;BME280;47610;52.252;20.922;2023-03-07T14:53:27;98285.40;;;4.65;100.00
61697;BME280;47610;52.252;20.922;2023-03-07T14:58:35;98278.69;;;4.66;100.00
61697;BME280;47610;52.252;20.922;2023-03-07T15:03:46;98270.11;;;4.67;100.00
61697;BME280;47610;52.252;20.922;2023-03-07T15:08:54;98269.34;;;4.68;100.00
61697;BME280;47610;52.252;20.922;2023-03-07T15:14:00;98274.82;;;4.70;100.00
61697;BME280;47610;52.252;20.922;2023-03-07T15:19:07;98269.83;;;4.68;100.00
61697;BME280;47610;52.252;20.922;2023-03-07T15:24:19;98268.33;;;4.66;100.00
61697;BME280;47610;52.252;20.922;2023-03-07T15:29:26;98259.47;;;4.64;100.00
61697;BME280;47610;52.252;20.922;2023-03-07T15:34:32;98257.55;;;4.64;100.00
61697;BME280;47610;52.252;20.922;2023-03-07T15:39:36;98252.96;;;4.65;100.00
61697;BME280;47610;52.252;20.922;2023-03-07T15:44:39;98246.26;;;4.65;100.00
61697;BME280;47610;52.252;20.922;2023-03-07T15:49:45;98239.29;;;4.64;100.00
61697;BME280;47610;52.252;20.922;2023-03-07T15:54:55;98240.77;;;4.64;100.00
61697;BME280;47610;52.252;20.922;2023-03-07T16:00:02;98231.64;;;4.61;100.00
61697;BME280;47610;52.252;20.922;2023-03-07T16:05:28;98226.02;;;4.57;100.00
61697;BME280;47610;52.252;20.922;2023-03-07T16:10:33;98218.89;;;4.51;100.00
61697;BME280;47610;52.252;20.922;2023-03-07T16:15:36;98211.52;;;4.47;100.00
61697;BME280;47610;52.252;20.922;2023-03-07T16:20:40;98209.70;;;4.44;100.00
61697;BME280;47610;52.252;20.922;2023-03-07T16:25:43;98202.85;;;4.42;100.00
61697;BME280;47610;52.252;20.922;2023-03-07T16:30:45;98201.42;;;4.39;100.00
61697;BME280;47610;52.252;20.922;2023-03-07T16:41:18;98198.88;;;4.37;100.00
61697;BME280;47610;52.252;20.922;2023-03-07T16:46:22;98200.39;;;4.33;100.00
61697;BME280;47610;52.252;20.922;2023-03-07T16:51:26;98186.27;;;4.27;100.00
61697;BME280;47610;52.252;20.922;2023-03-07T16:56:34;98190.92;;;4.26;100.00
61697;BME280;47610;52.252;20.922;2023-03-07T17:01:39;98180.25;;;4.20;100.00
61697;BME280;47610;52.252;20.922;2023-03-07T17:06:43;98188.21;;;4.20;100.00
61697;BME280;47610;52.252;20.922;2023-03-07T17:11:48;98188.77;;;4.19;100.00
61697;BME280;47610;52.252;20.922;2023-03-07T17:16:53;98183.11;;;4.17;100.00
61697;BME280;47610;52.252;20.922;2023-03-07T17:21:59;98179.45;;;4.14;100.00
61697;BME280;47610;52.252;20.922;2023-03-07T17:27:04;98181.27;;;4.11;100.00
61697;BME280;47610;52.252;20.922;2023-03-07T17:32:09;98176.13;;;4.07;100.00
61697;BME280;47610;52.252;20.922;2023-03-07T17:37:14;98175.11;;;4.05;100.00
61697;BME280;47610;52.252;20.922;2023-03-07T17:42:17;98173.41;;;4.01;100.00
61697;BME280;47610;52.252;20.922;2023-03-07T17:47:21;98173.41;;;4.00;100.00
61697;BME280;47610;52.252;20.922;2023-03-07T17:52:24;98164.63;;;3.98;100.00
61697;BME280;47610;52.252;20.922;2023-03-07T17:57:29;98164.61;;;3.99;100.00
61697;BME280;47610;52.252;20.922;2023-03-07T18:02:32;98163.20;;;3.98;100.00
61697;BME280;47610;52.252;20.922;2023-03-07T18:07:35;98163.54;;;3.97;100.00
61697;BME280;47610;52.252;20.922;2023-03-07T18:12:40;98157.45;;;3.96;100.00
61697;BME280;47610;52.252;20.922;2023-03-07T18:17:43;98152.45;;;3.96;100.00
61697;BME280;47610;52.252;20.922;2023-03-07T18:22:47;98152.77;;;3.97;100.00
61697;BME280;47610;52.252;20.922;2023-03-07T18:27:51;98147.63;;;3.99;100.00
61697;BME280;47610;52.252;20.922;2023-03-07T18:32:55;98141.96;;;3.99;100.00
61697;BME280;47610;52.252;20.922;2023-03-07T18:37:58;98139.15;;;3.97;100.00
61697;BME280;47610;52.252;20.922;2023-03-07T18:43:02;98140.56;;;3.97;100.00
61697;BME280;47610;52.252;20.922;2023-03-07T18:48:05;98140.81;;;3.99;100.00
61697;BME280;47610;52.252;20.922;2023-03-07T19:01:25;98140.59;;;4.15;100.00
61697;BME280;47610;52.252;20.922;2023-03-07T19:06:31;98139.52;;;4.18;100.00
61697;BME280;47610;52.252;20.922;2023-03-07T19:11:35;98136.88;;;4.22;100.00
61697;BME280;47610;52.252;20.922;2023-03-07T19:16:39;98136.14;;;4.25;100.00
61697;BME280;47610;52.252;20.922;2023-03-07T19:21:42;98135.57;;;4.27;100.00
61697;BME280;47610;52.252;20.922;2023-03-07T19:26:45;98127.98;;;4.29;100.00
61697;BME280;47610;52.252;20.922;2023-03-07T19:31:50;98125.03;;;4.30;100.00
61697;BME280;47610;52.252;20.922;2023-03-07T19:36:53;98126.07;;;4.30;100.00
61697;BME280;47610;52.252;20.922;2023-03-07T19:41:56;98119.42;;;4.30;100.00
61697;BME280;47610;52.252;20.922;2023-03-07T19:47:00;98118.77;;;4.29;100.00
61697;BME280;47610;52.252;20.922;2023-03-07T19:52:03;98116.12;;;4.28;100.00
61697;BME280;47610;52.252;20.922;2023-03-07T19:57:07;98122.45;;;4.26;100.00
61697;BME280;47610;52.252;20.922;2023-03-07T20:02:12;98124.12;;;4.24;100.00
61697;BME280;47610;52.252;20.922;2023-03-07T20:07:15;98124.35;;;4.22;100.00
61697;BME280;47610;52.252;20.922;2023-03-07T20:12:19;98115.29;;;4.19;100.00
61697;BME280;47610;52.252;20.922;2023-03-07T20:17:22;98107.64;;;4.16;100.00
61697;BME280;47610;52.252;20.922;2023-03-07T20:22:25;98100.26;;;4.14;100.00
61697;BME280;47610;52.252;20.922;2023-03-07T20:27:29;98102.36;;;4.16;100.00
61697;BME280;47610;52.252;20.922;2023-03-07T20:32:32;98097.42;;;4.20;100.00
61697;BME280;47610;52.252;20.922;2023-03-07T20:37:35;98102.79;;;4.22;100.00
61697;BME280;47610;52.252;20.922;2023-03-07T20:42:40;98103.95;;;4.25;100.00
61697;BME280;47610;52.252;20.922;2023-03-07T20:47:42;98099.08;;;4.27;100.00
61697;BME280;47610;52.252;20.922;2023-03-07T20:52:45;98088.89;;;4.27;100.00
61697;BME280;47610;52.252;20.922;2023-03-07T20:57:51;98091.39;;;4.27;100.00
61697;BME280;47610;52.252;20.922;2023-03-07T21:02:54;98087.21;;;4.26;100.00
61697;BME280;47610;52.252;20.922;2023-03-07T21:07:57;98086.30;;;4.25;100.00
61697;BME280;47610;52.252;20.922;2023-03-07T21:13:00;98092.70;;;4.22;100.00
61697;BME280;47610;52.252;20.922;2023-03-07T21:18:04;98092.55;;;4.18;100.00
61697;BME280;47610;52.252;20.922;2023-03-07T21:23:07;98096.13;;;4.14;100.00
61697;BME280;47610;52.252;20.922;2023-03-07T21:28:11;98098.19;;;4.14;100.00
61697;BME280;47610;52.252;20.922;2023-03-07T21:33:15;98099.30;;;4.12;100.00
61697;BME280;47610;52.252;20.922;2023-03-07T21:38:18;98102.46;;;4.12;100.00
61697;BME280;47610;52.252;20.922;2023-03-07T21:43:23;98097.14;;;4.05;100.00
61697;BME280;47610;52.252;20.922;2023-03-07T21:48:26;98106.95;;;4.04;100.00
61697;BME280;47610;52.252;20.922;2023-03-07T21:53:29;98109.61;;;4.00;100.00
61697;BME280;47610;52.252;20.922;2023-03-07T21:58:33;98110.47;;;3.96;100.00
61697;BME280;47610;52.252;20.922;2023-03-07T22:03:37;98119.39;;;3.92;100.00
61697;BME280;47610;52.252;20.922;2023-03-07T22:08:40;98130.05;;;3.87;100.00
61697;BME280;47610;52.252;20.922;2023-03-07T22:13:45;98146.36;;;3.84;100.00
61697;BME280;47610;52.252;20.922;2023-03-07T22:18:53;98174.12;;;3.77;100.00
61697;BME280;47610;52.252;20.922;2023-03-07T22:23:58;98182.35;;;3.62;100.00
61697;BME280;47610;52.252;20.922;2023-03-07T22:29:01;98193.48;;;3.49;100.00
61697;BME280;47610;52.252;20.922;2023-03-07T22:34:04;98205.61;;;3.31;100.00
61697;BME280;47610;52.252;20.922;2023-03-07T22:39:08;98203.74;;;3.07;100.00
61697;BME280;47610;52.252;20.922;2023-03-07T22:44:11;98210.23;;;2.82;100.00
61697;BME280;47610;52.252;20.922;2023-03-07T22:49:15;98216.74;;;2.63;100.00
61697;BME280;47610;52.252;20.922;2023-03-07T22:54:19;98218.92;;;2.44;100.00
61697;BME280;47610;52.252;20.922;2023-03-07T22:59:22;98217.55;;;2.27;100.00
61697;BME280;47610;52.252;20.922;2023-03-07T23:04:25;98229.45;;;2.16;100.00
61697;BME280;47610;52.252;20.922;2023-03-07T23:09:28;98233.16;;;2.05;100.00
61697;BME280;47610;52.252;20.922;2023-03-07T23:14:32;98230.83;;;1.98;100.00
61697;BME280;47610;52.252;20.922;2023-03-07T23:19:35;98235.23;;;1.93;100.00
61697;BME280;47610;52.252;20.922;2023-03-07T23:24:38;98243.96;;;1.93;100.00
61697;BME280;47610;52.252;20.922;2023-03-07T23:29:41;98247.75;;;1.91;100.00
61697;BME280;47610;52.252;20.922;2023-03-07T23:34:44;98253.67;;;1.90;100.00
61697;BME280;47610;52.252;20.922;2023-03-07T23:39:48;98252.75;;;1.86;100.00
61697;BME280;47610;52.252;20.922;2023-03-07T23:44:51;98261.38;;;1.81;100.00
61697;BME280;47610;52.252;20.922;2023-03-07T23:49:55;98260.94;;;1.76;100.00
61697;BME280;47610;52.252;20.922;2023-03-07T23:54:58;98266.20;;;1.70;100.00
